Time;durP1;ratioP1;P1;durP2;ratioP2;P2;SDS_P1;SDS_P2;PMS_P1;PMS_P2;Temp;Humidity;BMP_temperature;BMP_pressure;BME280_temperature;BME280_humidity;BME280_pressure;Samples;Min_cycle;Max_cycle;Signal;HPM_P1;HPM_P2
2023/02/03 00:01:36;;;;;;;;;;;;;;;7.14;50.83;98933.69;4957613;29;19925;-69
2023/02/03 00:04:01;;;;;;;;;;;;;;;7.13;51.00;98932.00;4956106;29;19923;-68
2023/02/03 00:06:27;;;;;;;;;;;;;;;7.12;50.84;98940.75;4956197;29;19919;-69
2023/02/03 00:08:53;;;;;;;;;;;;;;;7.12;51.10;98935.56;4956102;29;19926;-69
2023/02/03 00:11:18;;;;;;;;;;;;;;;7.10;50.68;98937.38;4955698;29;19922;-69
2023/02/03 00:13:43;;;;;;;;;;;;;;;7.09;51.28;98931.38;4956404;29;19918;-69
2023/02/03 00:16:09;;;;;;;;;;;;;;;7.09;50.30;98933.97;4956237;28;19918;-69
2023/02/03 00:18:34;;;;;;;;;;;;;;;7.09;51.05;98927.94;4956384;29;19926;-69
2023/02/03 00:20:59;;;;;;;;;;;;;;;7.07;50.65;98928.03;4957303;29;19918;-68
2023/02/03 00:23:25;;;;;;;;;;;;;;;7.07;51.15;98943.59;4956180;29;19919;-69
2023/02/03 00:25:50;;;;;;;;;;;;;;;7.06;50.74;98945.34;4957191;29;20401;-69
2023/02/03 00:28:16;;;;;;;;;;;;;;;7.06;50.87;98950.53;4956223;29;20021;-70
2023/02/03 00:30:41;;;;;;;;;;;;;;;7.07;50.21;98957.41;4957012;29;19925;-70
2023/02/03 00:33:06;;;;;;;;;;;;;;;7.10;50.84;98947.78;4955613;29;19922;-70
2023/02/03 00:35:32;;;;;;;;;;;;;;;7.09;50.54;98944.34;4956196;29;20420;-69
2023/02/03 00:37:57;;;;;;;;;;;;;;;7.09;50.25;98941.75;4957129;29;19918;-69
2023/02/03 00:40:23;;;;;;;;;;;;;;;7.09;50.43;98946.94;4955265;29;20009;-69
2023/02/03 00:42:48;;;;;;;;;;;;;;;7.10;50.74;98938.25;4954724;29;19922;-68
2023/02/03 00:45:14;;;;;;;;;;;;;;;7.12;50.42;98940.75;4954842;28;19976;-70
2023/02/03 00:47:39;;;;;;;;;;;;;;;7.13;50.33;98952.78;4954454;28;19918;-69
2023/02/03 00:50:05;;;;;;;;;;;;;;;7.14;50.23;98970.03;4954878;29;19918;-69
2023/02/03 00:52:30;;;;;;;;;;;;;;;7.14;50.47;98959.66;4955361;29;19977;-69
2023/02/03 00:54:55;;;;;;;;;;;;;;;7.14;50.24;98944.06;4955483;28;19919;-69
2023/02/03 00:57:20;;;;;;;;;;;;;;;7.14;50.52;98959.66;4955310;29;19961;-69
2023/02/03 00:59:46;;;;;;;;;;;;;;;7.13;50.18;98955.38;4955633;28;19923;-69
2023/02/03 01:02:11;;;;;;;;;;;;;;;7.12;50.19;98948.53;4956334;29;19919;-69
2023/02/03 01:04:36;;;;;;;;;;;;;;;7.13;50.31;98952.78;4955275;29;19992;-69
2023/02/03 01:07:02;;;;;;;;;;;;;;;7.11;50.30;98952.03;4956458;29;19929;-69
2023/02/03 01:09:27;;;;;;;;;;;;;;;7.09;49.50;98949.53;4955288;29;19918;-69
2023/02/03 01:11:52;;;;;;;;;;;;;;;7.09;50.64;98944.34;4939250;29;19944;-69
2023/02/03 01:14:18;;;;;;;;;;;;;;;7.09;49.89;98940.94;4956105;29;19929;-69
2023/02/03 01:16:43;;;;;;;;;;;;;;;7.09;49.85;98953.91;4956251;29;20468;-69
2023/02/03 01:19:08;;;;;;;;;;;;;;;7.08;50.17;98960.84;4954886;29;20017;-69
2023/02/03 01:21:35;;;;;;;;;;;;;;;7.06;50.52;98953.13;4954854;29;19919;-69
2023/02/03 01:24:00;;;;;;;;;;;;;;;7.05;50.06;98948.03;4938868;29;19922;-69
2023/02/03 01:26:25;;;;;;;;;;;;;;;7.05;49.78;98951.47;4954833;29;19918;-69
2023/02/03 01:28:54;;;;;;;;;;;;;;;7.05;50.05;98950.63;4956137;29;19919;-69
2023/02/03 01:31:21;;;;;;;;;;;;;;;7.06;49.71;98942.75;4954730;29;19982;-70
2023/02/03 01:33:47;;;;;;;;;;;;;;;7.09;49.65;98951.31;4956165;29;19926;-69
2023/02/03 01:36:15;;;;;;;;;;;;;;;7.10;49.91;98951.22;4956042;29;19957;-69
2023/02/03 01:38:40;;;;;;;;;;;;;;;7.12;49.65;98946.75;4954571;29;19925;-69
2023/02/03 01:41:06;;;;;;;;;;;;;;;7.15;49.45;98954.38;4954537;29;20013;-70
2023/02/03 01:43:32;;;;;;;;;;;;;;;7.17;49.96;98949.09;4938486;29;20353;-70
2023/02/03 01:45:58;;;;;;;;;;;;;;;7.20;49.32;98951.50;4955695;29;19918;-69
2023/02/03 01:48:23;;;;;;;;;;;;;;;7.20;49.43;98952.34;4956136;29;19918;-69
2023/02/03 01:50:49;;;;;;;;;;;;;;;7.23;49.43;98948.72;4954647;29;20297;-69
2023/02/03 01:53:14;;;;;;;;;;;;;;;7.25;49.05;98947.69;4955539;29;19918;-69
2023/02/03 01:55:40;;;;;;;;;;;;;;;7.28;48.91;98944.09;4954315;29;20022;-70
2023/02/03 01:58:05;;;;;;;;;;;;;;;7.29;49.37;98948.38;4954634;29;20013;-70
2023/02/03 02:00:30;;;;;;;;;;;;;;;7.32;49.15;98936.94;4953892;28;20065;-69
2023/02/03 02:02:56;;;;;;;;;;;;;;;7.34;48.75;98929.94;4955548;29;20009;-69
2023/02/03 02:05:36;;;;;;;;;;;;;;;7.34;48.52;98941.13;4954382;29;19922;-70
2023/02/03 02:08:01;;;;;;;;;;;;;;;7.36;48.81;98954.84;4954316;29;19919;-70
2023/02/03 02:10:27;;;;;;;;;;;;;;;7.38;48.51;98955.59;4954101;29;20417;-70
2023/02/03 02:12:53;;;;;;;;;;;;;;;7.39;48.49;98964.25;4954007;29;19918;-69
2023/02/03 02:15:19;;;;;;;;;;;;;;;7.39;48.62;98959.88;4953841;29;19919;-69
2023/02/03 02:17:50;;;;;;;;;;;;;;;7.41;48.51;98958.00;4954359;29;19918;-69
2023/02/03 02:20:23;;;;;;;;;;;;;;;7.41;48.37;98958.00;4955671;29;19977;-70
2023/02/03 02:22:58;;;;;;;;;;;;;;;7.42;47.98;98961.47;4954959;29;19922;-70
2023/02/03 02:25:26;;;;;;;;;;;;;;;7.41;48.15;98958.00;4953869;29;19925;-70
2023/02/03 02:27:52;;;;;;;;;;;;;;;7.41;47.94;98952.81;4954778;29;19941;-70
2023/02/03 02:30:20;;;;;;;;;;;;;;;7.41;48.21;98958.00;4955008;29;20373;-70
2023/02/03 02:33:18;;;;;;;;;;;;;;;7.40;47.90;98948.56;4953476;29;19961;-69
2023/02/03 02:35:46;;;;;;;;;;;;;;;7.40;47.87;98963.28;4933768;29;20334;-68
2023/02/03 02:38:35;;;;;;;;;;;;;;;7.39;47.92;98965.06;4933772;29;19979;-68
2023/02/03 02:41:00;;;;;;;;;;;;;;;7.37;48.13;98966.94;4877024;29;20015;-69
2023/02/03 02:43:27;;;;;;;;;;;;;;;7.36;48.33;98969.63;4876919;29;20031;-68
2023/02/03 02:45:53;;;;;;;;;;;;;;;7.37;47.32;98976.50;4861758;29;19962;-68
2023/02/03 02:48:25;;;;;;;;;;;;;;;7.36;47.54;98961.81;4861130;29;20380;-68
2023/02/03 02:50:52;;;;;;;;;;;;;;;7.35;47.68;98968.78;4861492;29;19962;-68
2023/02/03 02:53:18;;;;;;;;;;;;;;;7.35;48.26;98975.72;4861393;29;19926;-69
2023/02/03 02:55:43;;;;;;;;;;;;;;;7.33;47.87;98981.00;4861780;29;19920;-68
2023/02/03 02:58:10;;;;;;;;;;;;;;;7.34;47.52;98985.28;4861198;29;19923;-68
2023/02/03 03:00:36;;;;;;;;;;;;;;;7.34;47.13;98989.66;4861242;29;19924;-68
2023/02/03 03:03:13;;;;;;;;;;;;;;;7.33;47.39;98982.78;4861287;29;19969;-68
2023/02/03 03:05:39;;;;;;;;;;;;;;;7.34;47.76;98987.06;4876902;29;19924;-68
2023/02/03 03:08:04;;;;;;;;;;;;;;;7.35;47.33;98991.31;4861299;29;20303;-68
2023/02/03 03:10:30;;;;;;;;;;;;;;;7.35;47.56;98991.31;4876394;29;19923;-68
2023/02/03 03:13:02;;;;;;;;;;;;;;;7.35;47.67;98988.72;4876555;29;19992;-68
2023/02/03 03:15:28;;;;;;;;;;;;;;;7.35;47.50;98992.16;4861292;29;20043;-68
2023/02/03 03:18:02;;;;;;;;;;;;;;;7.34;47.59;98992.25;4912330;29;20038;-68
2023/02/03 03:20:27;;;;;;;;;;;;;;;7.34;47.39;98997.44;4954236;29;19926;-68
2023/02/03 03:22:57;;;;;;;;;;;;;;;7.33;47.38;98986.19;4953318;29;19918;-68
2023/02/03 03:25:28;;;;;;;;;;;;;;;7.33;47.27;98983.59;4952823;29;19956;-68
2023/02/03 03:27:55;;;;;;;;;;;;;;;7.31;46.75;98987.25;4949461;29;19969;-68
2023/02/03 03:30:34;;;;;;;;;;;;;;;7.30;46.91;98988.97;4933749;29;19930;-69
2023/02/03 03:32:59;;;;;;;;;;;;;;;7.28;47.09;98979.63;4933574;29;19927;-69
2023/02/03 03:35:27;;;;;;;;;;;;;;;7.26;47.43;98984.91;4935039;29;19923;-69
2023/02/03 03:37:57;;;;;;;;;;;;;;;7.25;47.23;98989.25;4933869;29;20302;-69
2023/02/03 03:40:30;;;;;;;;;;;;;;;7.24;46.92;98989.34;4933802;29;20361;-69
2023/02/03 03:43:00;;;;;;;;;;;;;;;7.22;47.29;98993.78;4934144;29;20018;-69
2023/02/03 03:45:34;;;;;;;;;;;;;;;7.21;47.35;98986.91;4933684;29;19926;-69
2023/02/03 03:48:06;;;;;;;;;;;;;;;7.20;47.81;98993.06;4933743;29;19919;-70
2023/02/03 03:50:32;;;;;;;;;;;;;;;7.20;47.71;98995.66;4933824;29;19927;-69
2023/02/03 03:52:58;;;;;;;;;;;;;;;7.19;47.47;99002.59;4934822;29;19923;-69
2023/02/03 03:55:23;;;;;;;;;;;;;;;7.18;47.34;99002.66;4933829;29;19926;-69
2023/02/03 03:57:55;;;;;;;;;;;;;;;7.17;47.44;99007.03;4934101;29;20426;-69
2023/02/03 04:00:20;;;;;;;;;;;;;;;7.16;47.27;99015.75;4935018;29;20006;-70
2023/02/03 04:02:47;;;;;;;;;;;;;;;7.16;47.47;99020.09;4933633;29;20375;-69
2023/02/03 04:05:13;;;;;;;;;;;;;;;7.14;47.27;99025.38;4933662;29;20013;-69
2023/02/03 04:07:42;;;;;;;;;;;;;;;7.14;47.44;99027.97;4934654;29;19966;-69
2023/02/03 04:10:11;;;;;;;;;;;;;;;7.14;47.52;99027.16;4933473;29;19919;-69
2023/02/03 04:12:37;;;;;;;;;;;;;;;7.12;47.75;99027.25;4933393;29;20013;-69
2023/02/03 04:15:02;;;;;;;;;;;;;;;7.11;46.81;99035.94;4933596;29;20006;-69
2023/02/03 04:17:27;;;;;;;;;;;;;;;7.11;47.86;99022.13;4933347;29;20378;-69
2023/02/03 04:19:53;;;;;;;;;;;;;;;7.11;46.88;99027.34;4933505;29;19989;-70
2023/02/03 04:22:18;;;;;;;;;;;;;;;7.07;47.67;99030.09;4935402;29;20017;-70
2023/02/03 04:24:43;;;;;;;;;;;;;;;7.06;47.61;99025.81;4936610;29;19919;-70
2023/02/03 04:27:09;;;;;;;;;;;;;;;7.05;47.13;99028.50;4937895;29;20405;-69
2023/02/03 04:29:34;;;;;;;;;;;;;;;7.05;46.66;99036.28;4936755;29;20009;-69
2023/02/03 04:32:00;;;;;;;;;;;;;;;7.04;47.21;99052.81;4936548;29;19922;-69
2023/02/03 04:34:25;;;;;;;;;;;;;;;7.04;46.75;99052.81;4937189;29;19961;-68
2023/02/03 04:36:50;;;;;;;;;;;;;;;7.02;47.12;99057.22;4937630;29;19923;-68
2023/02/03 04:39:16;;;;;;;;;;;;;;;7.00;46.53;99051.31;4936519;29;19970;-68
2023/02/03 04:41:41;;;;;;;;;;;;;;;6.98;47.28;99059.16;4936661;29;19919;-70
2023/02/03 04:44:06;;;;;;;;;;;;;;;6.97;46.77;99065.28;4936459;29;20362;-72
2023/02/03 04:46:31;;;;;;;;;;;;;;;7.12;60.13;99075.75;4944947;29;19980;-72
2023/02/03 04:48:57;;;;;;;;;;;;;;;7.14;54.78;99073.88;4939001;29;20378;-74
2023/02/03 04:51:22;;;;;;;;;;;;;;;7.13;54.23;99080.84;4939940;29;19918;-72
2023/02/03 04:53:49;;;;;;;;;;;;;;;7.28;63.98;99086.91;4958087;28;19984;-71
2023/02/03 04:56:15;;;;;;;;;;;;;;;7.43;65.17;99098.19;4925434;29;19954;-74
2023/02/03 04:58:40;;;;;;;;;;;;;;;7.44;61.75;99107.66;4923907;29;19926;-73
2023/02/03 05:01:06;;;;;;;;;;;;;;;7.41;60.86;99113.84;4938977;29;20377;-71
2023/02/03 05:03:32;;;;;;;;;;;;;;;7.38;59.81;99106.22;4938527;29;20305;-70
2023/02/03 05:05:57;;;;;;;;;;;;;;;7.35;58.98;99119.41;4939134;29;19919;-72
2023/02/03 05:08:23;;;;;;;;;;;;;;;7.31;58.31;99115.31;4956669;29;19918;-71
2023/02/03 05:10:48;;;;;;;;;;;;;;;7.28;57.52;99114.66;4956313;29;19926;-68
2023/02/03 05:13:13;;;;;;;;;;;;;;;7.23;57.00;99115.75;4956218;29;19918;-69
2023/02/03 05:15:39;;;;;;;;;;;;;;;7.50;69.78;99114.28;4939221;29;19918;-71
2023/02/03 05:18:04;;;;;;;;;;;;;;;7.82;72.12;99096.78;4940829;29;20013;-70
2023/02/03 05:20:29;;;;;;;;;;;;;;;7.84;67.26;99112.28;4943540;29;20373;-70
2023/02/03 05:22:54;;;;;;;;;;;;;;;7.75;65.31;99104.13;4954611;29;19926;-70
2023/02/03 05:25:20;;;;;;;;;;;;;;;7.63;64.16;99097.03;4954885;29;20442;-70
2023/02/03 05:27:45;;;;;;;;;;;;;;;7.72;66.63;99104.28;4954757;29;19925;-70
2023/02/03 05:30:11;;;;;;;;;;;;;;;7.70;64.43;99100.09;4937558;29;19918;-70
2023/02/03 05:32:36;;;;;;;;;;;;;;;7.60;63.76;99118.81;4954430;29;20379;-69
2023/02/03 05:35:01;;;;;;;;;;;;;;;7.53;63.28;99117.53;4953544;28;19945;-71
2023/02/03 05:37:26;;;;;;;;;;;;;;;7.45;62.80;99118.88;4938748;29;20393;-69
2023/02/03 05:39:52;;;;;;;;;;;;;;;7.38;62.86;99118.38;4956201;29;19918;-70
2023/02/03 05:42:17;;;;;;;;;;;;;;;7.33;62.62;99115.22;4938547;29;19918;-70
2023/02/03 05:44:42;;;;;;;;;;;;;;;7.31;62.08;99112.72;4922692;29;20392;-69
2023/02/03 05:47:08;;;;;;;;;;;;;;;7.31;61.99;99123.09;4938580;29;20413;-69
2023/02/03 05:49:33;;;;;;;;;;;;;;;7.34;61.81;99116.91;4938503;29;20029;-70
2023/02/03 05:51:58;;;;;;;;;;;;;;;7.38;61.16;99124.41;4938957;29;19977;-70
2023/02/03 05:54:23;;;;;;;;;;;;;;;7.43;61.27;99121.56;4938214;29;19973;-69
2023/02/03 05:56:49;;;;;;;;;;;;;;;7.47;60.80;99130.84;4955754;29;19919;-70
2023/02/03 05:59:14;;;;;;;;;;;;;;;7.51;60.62;99128.91;4937253;29;20412;-68
2023/02/03 06:01:39;;;;;;;;;;;;;;;7.56;60.61;99127.72;4955595;29;19925;-69
2023/02/03 06:04:05;;;;;;;;;;;;;;;7.64;60.42;99136.81;4955613;29;19918;-69
2023/02/03 06:06:34;;;;;;;;;;;;;;;7.69;60.30;99127.84;4937724;29;19922;-69
2023/02/03 06:08:59;;;;;;;;;;;;;;;7.77;59.90;99145.59;4937103;29;20318;-68
2023/02/03 06:11:25;;;;;;;;;;;;;;;7.85;59.48;99147.75;4937093;29;19918;-69
2023/02/03 06:13:50;;;;;;;;;;;;;;;7.92;59.10;99141.25;4953919;29;20382;-70
2023/02/03 06:16:15;;;;;;;;;;;;;;;8.15;58.65;99152.91;4954113;29;19918;-70
2023/02/03 06:18:41;;;;;;;;;;;;;;;8.24;57.95;99152.38;4953688;29;19942;-70
2023/02/03 06:21:06;;;;;;;;;;;;;;;8.36;57.57;99162.94;4953666;29;19923;-70
2023/02/03 06:23:31;;;;;;;;;;;;;;;8.45;57.31;99165.03;4922297;29;19918;-71
2023/02/03 06:25:59;;;;;;;;;;;;;;;8.48;57.39;99170.06;4922189;29;19974;-69
2023/02/03 06:28:24;;;;;;;;;;;;;;;8.52;56.97;99166.31;4955411;29;20325;-69
2023/02/03 06:30:50;;;;;;;;;;;;;;;8.58;56.64;99168.53;4937945;29;19919;-70
2023/02/03 06:33:16;;;;;;;;;;;;;;;8.84;56.15;99171.34;4955429;29;19926;-69
2023/02/03 06:35:41;;;;;;;;;;;;;;;9.65;53.79;99174.91;4955170;29;20454;-69
2023/02/03 06:38:06;;;;;;;;;;;;;;;9.69;53.10;99173.75;4954953;29;19986;-69
2023/02/03 06:40:32;;;;;;;;;;;;;;;10.46;51.73;99177.28;4937875;29;19919;-69
2023/02/03 06:42:57;;;;;;;;;;;;;;;11.52;49.63;99178.56;4937747;29;20271;-70
2023/02/03 06:45:23;;;;;;;;;;;;;;;12.36;47.86;99181.91;4954871;28;19970;-69
2023/02/03 06:47:49;;;;;;;;;;;;;;;13.45;45.65;99183.00;4937909;29;19922;-70
2023/02/03 06:50:14;;;;;;;;;;;;;;;13.15;45.16;99181.84;4954638;29;19918;-70
2023/02/03 06:52:39;;;;;;;;;;;;;;;13.05;44.97;99194.03;4937974;29;19919;-69
2023/02/03 06:55:05;;;;;;;;;;;;;;;12.88;44.97;99195.38;4954947;28;19926;-71
2023/02/03 06:57:30;;;;;;;;;;;;;;;12.75;44.96;99197.28;4938084;29;19990;-72
2023/02/03 06:59:56;;;;;;;;;;;;;;;12.59;44.91;99193.22;4921950;29;20005;-72
2023/02/03 07:02:21;;;;;;;;;;;;;;;12.44;45.03;99207.50;4937675;29;19918;-71
2023/02/03 07:04:46;;;;;;;;;;;;;;;12.26;45.43;99201.91;4955148;29;19941;-70
2023/02/03 07:07:12;;;;;;;;;;;;;;;12.03;45.81;99212.28;4921845;29;20306;-71
2023/02/03 07:09:40;;;;;;;;;;;;;;;11.87;45.85;99216.97;4937676;29;19922;-69
2023/02/03 07:12:06;;;;;;;;;;;;;;;11.74;45.67;99219.66;4954741;29;19923;-69
2023/02/03 07:14:31;;;;;;;;;;;;;;;11.67;45.76;99223.66;4954653;29;20321;-71
2023/02/03 07:16:56;;;;;;;;;;;;;;;11.56;46.13;99224.47;4937503;29;19919;-70
2023/02/03 07:19:22;;;;;;;;;;;;;;;11.56;46.09;99229.69;4954874;29;20009;-72
2023/02/03 07:21:47;;;;;;;;;;;;;;;12.01;45.07;99231.69;4921620;29;20310;-70
2023/02/03 07:24:12;;;;;;;;;;;;;;;12.66;44.35;99227.63;4937394;29;19919;-70
2023/02/03 07:26:38;;;;;;;;;;;;;;;12.60;43.67;99235.97;4921514;29;20567;-70
2023/02/03 07:29:03;;;;;;;;;;;;;;;12.49;43.81;99231.53;4936576;29;19918;-70
2023/02/03 07:31:28;;;;;;;;;;;;;;;12.63;43.10;99249.69;4937409;29;19927;-71
2023/02/03 07:33:54;;;;;;;;;;;;;;;12.54;43.57;99253.00;4921087;29;19933;-72
2023/02/03 07:36:19;;;;;;;;;;;;;;;12.38;43.35;99258.56;4937094;29;20040;-73
2023/02/03 07:38:44;;;;;;;;;;;;;;;12.30;43.43;99255.66;4921407;29;19918;-72
2023/02/03 07:41:10;;;;;;;;;;;;;;;12.24;43.81;99266.59;4936583;29;20017;-71
2023/02/03 07:43:35;;;;;;;;;;;;;;;12.26;43.57;99264.72;4937281;29;19918;-71
2023/02/03 07:46:01;;;;;;;;;;;;;;;13.10;42.26;99261.81;4954368;29;20390;-71
2023/02/03 07:48:26;;;;;;;;;;;;;;;14.11;41.87;99258.94;4954307;29;19981;-72
2023/02/03 07:50:51;;;;;;;;;;;;;;;14.89;40.71;99252.50;4954133;29;20441;-72
2023/02/03 07:53:17;;;;;;;;;;;;;;;15.94;38.78;99262.59;4954258;29;20310;-70
2023/02/03 07:55:42;;;;;;;;;;;;;;;16.39;37.90;99259.34;4954004;28;19918;-71
2023/02/03 07:58:07;;;;;;;;;;;;;;;16.70;37.20;99259.16;4956190;28;19977;-71
2023/02/03 08:00:32;;;;;;;;;;;;;;;16.27;37.06;99258.69;4957827;29;19926;-70
2023/02/03 08:02:58;;;;;;;;;;;;;;;16.50;36.38;99254.91;4940576;29;20362;-72
2023/02/03 08:05:23;;;;;;;;;;;;;;;16.51;36.18;99259.19;4940807;29;20005;-71
2023/02/03 08:07:48;;;;;;;;;;;;;;;16.25;36.26;99268.53;4957809;29;19981;-71
2023/02/03 08:10:17;;;;;;;;;;;;;;;16.10;36.25;99278.66;4940629;29;19922;-72
2023/02/03 08:12:43;;;;;;;;;;;;;;;15.96;36.21;99273.00;4957821;29;19918;-70
2023/02/03 08:15:08;;;;;;;;;;;;;;;15.95;35.97;99274.78;4940971;29;19928;-71
2023/02/03 08:17:34;;;;;;;;;;;;;;;15.72;36.21;99271.56;4940211;29;20393;-72
2023/02/03 08:19:59;;;;;;;;;;;;;;;15.45;36.63;99264.28;4957821;29;19918;-71
2023/02/03 08:22:24;;;;;;;;;;;;;;;15.25;36.94;99255.53;4940614;29;20012;-70
2023/02/03 08:24:50;;;;;;;;;;;;;;;15.16;36.98;99251.91;4940307;29;20289;-71
2023/02/03 08:27:16;;;;;;;;;;;;;;;14.91;37.38;99267.19;4957462;29;19918;-70
2023/02/03 08:29:42;;;;;;;;;;;;;;;14.73;37.50;99256.44;4940443;29;19918;-70
2023/02/03 08:32:11;;;;;;;;;;;;;;;14.48;37.81;99265.53;4940115;29;20294;-71
2023/02/03 08:34:36;;;;;;;;;;;;;;;14.34;38.27;99269.31;4940562;29;19929;-71
2023/02/03 08:37:01;;;;;;;;;;;;;;;14.13;38.54;99264.06;4925025;29;20278;-72
2023/02/03 08:39:27;;;;;;;;;;;;;;;14.00;38.75;99273.91;4924257;29;20375;-73
2023/02/03 08:41:52;;;;;;;;;;;;;;;13.89;38.76;99274.78;4924360;29;20310;-72
2023/02/03 08:44:18;;;;;;;;;;;;;;;13.81;38.86;99274.59;4940056;29;19919;-71
2023/02/03 08:46:44;;;;;;;;;;;;;;;13.81;38.93;99277.22;4957026;29;19918;-73
2023/02/03 08:49:09;;;;;;;;;;;;;;;13.72;39.10;99282.22;4957134;29;19925;-72
2023/02/03 08:51:35;;;;;;;;;;;;;;;13.68;39.06;99293.94;4940239;29;19919;-71
2023/02/03 08:54:00;;;;;;;;;;;;;;;13.56;39.39;99298.38;4939704;29;20006;-71
2023/02/03 08:56:26;;;;;;;;;;;;;;;13.42;39.46;99314.38;4939884;29;20465;-71
2023/02/03 08:58:51;;;;;;;;;;;;;;;13.26;39.62;99306.03;4956869;29;19970;-72
2023/02/03 09:01:17;;;;;;;;;;;;;;;13.10;40.17;99316.88;4956820;29;19919;-72
2023/02/03 09:03:42;;;;;;;;;;;;;;;12.95;40.47;99327.59;4924334;29;19918;-71
2023/02/03 09:06:10;;;;;;;;;;;;;;;12.82;40.66;99340.78;4923671;29;19972;-76
2023/02/03 09:08:35;;;;;;;;;;;;;;;12.71;40.70;99343.38;4940156;29;19962;-71
2023/02/03 09:11:01;;;;;;;;;;;;;;;12.61;41.11;99352.88;4939964;29;19957;-72
2023/02/03 09:13:26;;;;;;;;;;;;;;;12.48;41.30;99356.41;4939641;29;20350;-73
2023/02/03 09:15:52;;;;;;;;;;;;;;;12.38;41.06;99351.97;4939225;29;20005;-72
2023/02/03 09:18:17;;;;;;;;;;;;;;;12.32;41.35;99350.66;4956786;29;20291;-72
2023/02/03 09:20:42;;;;;;;;;;;;;;;12.37;41.20;99352.94;4939064;29;20052;-73
2023/02/03 09:23:08;;;;;;;;;;;;;;;12.71;40.58;99348.59;4956407;29;19968;-71
2023/02/03 09:25:33;;;;;;;;;;;;;;;13.50;39.61;99348.69;4939328;29;20013;-70
2023/02/03 09:28:01;;;;;;;;;;;;;;;14.41;38.20;99348.44;4939530;29;19993;-74
2023/02/03 09:30:27;;;;;;;;;;;;;;;15.71;36.54;99347.03;4939153;29;20306;-72
2023/02/03 09:32:53;;;;;;;;;;;;;;;18.64;32.06;99339.94;4956513;29;19922;-70
2023/02/03 09:35:19;;;;;;;;;;;;;;;20.00;29.64;99334.84;4939439;29;19930;-71
2023/02/03 09:37:44;;;;;;;;;;;;;;;21.25;27.90;99331.06;4956218;29;19919;-70
2023/02/03 09:40:11;;;;;;;;;;;;;;;22.55;26.37;99334.00;4939612;29;19926;-71
2023/02/03 09:42:58;;;;;;;;;;;;;;;20.87;28.34;99331.69;4939175;29;19918;-71
2023/02/03 09:45:25;;;;;;;;;;;;;;;19.58;30.12;99334.88;4939236;29;19926;-71
2023/02/03 09:47:54;;;;;;;;;;;;;;;19.25;30.33;99321.50;4955940;29;19957;-72
2023/02/03 09:50:20;;;;;;;;;;;;;;;18.89;31.01;99334.88;4939292;29;19930;-71
2023/02/03 09:52:45;;;;;;;;;;;;;;;18.44;31.38;99326.09;4922976;29;20350;-71
2023/02/03 09:55:20;;;;;;;;;;;;;;;18.11;31.71;99317.06;4937752;29;19918;-71
2023/02/03 09:57:50;;;;;;;;;;;;;;;19.52;29.86;99323.09;4955621;29;19918;-70
2023/02/03 10:00:19;;;;;;;;;;;;;;;18.68;30.86;99329.91;4923067;29;19922;-71
2023/02/03 10:02:48;;;;;;;;;;;;;;;18.38;31.39;99321.41;4938712;29;19925;-71
2023/02/03 10:05:21;;;;;;;;;;;;;;;17.87;31.94;99329.03;4955453;29;20422;-71
2023/02/03 10:07:52;;;;;;;;;;;;;;;17.58;32.28;99321.28;4938583;29;19918;-73
2023/02/03 10:10:30;;;;;;;;;;;;;;;17.30;32.45;99323.91;4938792;29;20013;-70
2023/02/03 10:13:15;;;;;;;;;;;;;;;17.00;32.79;99317.94;4955713;29;20010;-71
2023/02/03 10:15:41;;;;;;;;;;;;;;;16.93;33.21;99316.84;4944921;29;19925;-70
2023/02/03 10:18:10;;;;;;;;;;;;;;;17.14;32.96;99309.56;4955465;29;20013;-70
2023/02/03 10:20:38;;;;;;;;;;;;;;;17.24;33.04;99311.31;4937814;29;19964;-70
2023/02/03 10:23:10;;;;;;;;;;;;;;;17.13;33.24;99302.59;4955298;29;19918;-70
2023/02/03 10:25:40;;;;;;;;;;;;;;;16.85;33.50;99314.06;4938348;29;19925;-72
2023/02/03 10:28:13;;;;;;;;;;;;;;;16.54;33.89;99309.84;4921782;29;19918;-69
2023/02/03 10:30:44;;;;;;;;;;;;;;;16.36;33.88;99312.34;4937954;29;19919;-71
2023/02/03 10:33:13;;;;;;;;;;;;;;;16.19;33.95;99308.63;4938625;29;19950;-70
2023/02/03 10:35:44;;;;;;;;;;;;;;;16.04;34.43;99315.25;4938156;29;19930;-72
2023/02/03 10:38:12;;;;;;;;;;;;;;;15.84;34.61;99309.13;4955245;29;20401;-70
2023/02/03 10:40:37;;;;;;;;;;;;;;;15.69;34.96;99313.94;4937955;29;19925;-70
2023/02/03 10:45:46;;;;;;;;;;;;;;;15.39;35.13;99305.16;4940530;29;20389;-70
2023/02/03 10:48:12;;;;;;;;;;;;;;;15.27;35.28;99301.78;4938155;29;19918;-69
2023/02/03 10:50:40;;;;;;;;;;;;;;;15.20;35.60;99305.91;4937764;29;19985;-70
2023/02/03 10:53:18;;;;;;;;;;;;;;;15.16;35.62;99304.50;4937781;29;19941;-71
2023/02/03 10:55:44;;;;;;;;;;;;;;;15.35;35.02;99304.59;4954798;28;19918;-70
2023/02/03 10:58:13;;;;;;;;;;;;;;;15.87;34.73;99304.41;4938108;29;19922;-70
2023/02/03 11:00:38;;;;;;;;;;;;;;;16.28;34.31;99309.56;4937903;29;19953;-70
2023/02/03 11:03:07;;;;;;;;;;;;;;;16.60;34.00;99297.88;4954880;29;20013;-71
2023/02/03 11:05:33;;;;;;;;;;;;;;;16.29;34.30;99303.34;4921850;29;19918;-71
2023/02/03 11:07:59;;;;;;;;;;;;;;;16.00;34.87;99321.75;4954731;29;20088;-70
2023/02/03 11:10:28;;;;;;;;;;;;;;;16.10;34.74;99312.09;4954452;29;20453;-71
2023/02/03 11:13:12;;;;;;;;;;;;;;;16.19;34.69;99311.25;4938089;29;19919;-73
2023/02/03 11:15:42;;;;;;;;;;;;;;;16.00;34.76;99304.19;4953185;29;19925;-72
2023/02/03 11:18:24;;;;;;;;;;;;;;;15.84;34.74;99294.16;4937583;29;19918;-71
2023/02/03 11:20:49;;;;;;;;;;;;;;;15.85;34.47;99277.41;4921651;29;20314;-72
2023/02/03 11:23:14;;;;;;;;;;;;;;;15.79;34.34;99283.22;4937643;29;19918;-70
2023/02/03 11:25:39;;;;;;;;;;;;;;;15.90;34.66;99271.75;4937598;29;19973;-71
2023/02/03 11:28:08;;;;;;;;;;;;;;;15.81;34.75;99268.13;4937557;29;19918;-71
2023/02/03 11:30:33;;;;;;;;;;;;;;;15.95;34.63;99258.97;4937704;29;19919;-71
2023/02/03 11:32:59;;;;;;;;;;;;;;;16.10;34.47;99257.59;4939137;29;19989;-70
2023/02/03 11:35:25;;;;;;;;;;;;;;;16.21;34.10;99240.00;4941223;29;19922;-68
2023/02/03 11:37:51;;;;;;;;;;;;;;;15.83;34.81;99239.88;4925294;29;19981;-70
2023/02/03 11:40:19;;;;;;;;;;;;;;;15.62;34.76;99250.47;4941021;29;19969;-69
2023/02/03 11:42:47;;;;;;;;;;;;;;;15.58;34.67;99246.47;4958324;29;20001;-70
2023/02/03 11:45:13;;;;;;;;;;;;;;;15.69;34.57;99253.41;4958208;29;19977;-71
2023/02/03 11:47:42;;;;;;;;;;;;;;;15.52;34.90;99247.00;4958198;29;19923;-70
2023/02/03 11:50:12;;;;;;;;;;;;;;;15.44;34.62;99245.06;4958364;29;20417;-72
2023/02/03 11:52:44;;;;;;;;;;;;;;;15.52;34.84;99247.00;4941155;29;19919;-70
2023/02/03 11:55:21;;;;;;;;;;;;;;;15.38;34.98;99246.41;4940789;29;19929;-70
2023/02/03 11:57:58;;;;;;;;;;;;;;;15.38;35.05;99245.59;4924939;29;20339;-70
2023/02/03 12:00:25;;;;;;;;;;;;;;;15.42;34.98;99251.41;4957884;29;19925;-69
2023/02/03 12:02:57;;;;;;;;;;;;;;;15.42;35.19;99256.66;4957856;29;19918;-70
2023/02/03 12:05:28;;;;;;;;;;;;;;;15.49;35.10;99247.28;4957894;29;19942;-71
2023/02/03 12:08:12;;;;;;;;;;;;;;;15.52;35.35;99244.38;4956820;29;20382;-74
2023/02/03 12:10:40;;;;;;;;;;;;;;;15.68;34.83;99252.56;4957900;29;20382;-70
2023/02/03 12:13:08;;;;;;;;;;;;;;;15.71;34.94;99235.69;4957651;29;19918;-69
2023/02/03 12:15:39;;;;;;;;;;;;;;;15.70;34.19;99229.59;4957466;29;19926;-71
2023/02/03 12:18:14;;;;;;;;;;;;;;;15.66;34.24;99233.44;4956671;29;20402;-70
2023/02/03 12:20:39;;;;;;;;;;;;;;;15.61;34.26;99233.03;4956169;29;19945;-70
2023/02/03 12:23:13;;;;;;;;;;;;;;;15.52;34.45;99229.41;4957539;29;20294;-70
2023/02/03 12:25:42;;;;;;;;;;;;;;;15.42;34.41;99231.22;4940643;29;20501;-71
2023/02/03 12:28:13;;;;;;;;;;;;;;;15.30;34.66;99201.56;4957483;29;19918;-70
2023/02/03 12:30:42;;;;;;;;;;;;;;;15.18;34.67;99211.38;4957440;29;20402;-69
2023/02/03 12:33:31;;;;;;;;;;;;;;;15.06;34.86;99209.00;4924099;29;19923;-71
2023/02/03 12:35:58;;;;;;;;;;;;;;;14.92;34.94;99204.94;4949398;29;20366;-71
2023/02/03 12:38:24;;;;;;;;;;;;;;;14.76;35.13;99198.38;4957281;29;20444;-71
2023/02/03 12:40:51;;;;;;;;;;;;;;;14.63;35.20;99195.97;4957153;29;19922;-72
2023/02/03 12:43:16;;;;;;;;;;;;;;;14.50;35.16;99197.13;4939537;29;19918;-71
2023/02/03 12:45:41;;;;;;;;;;;;;;;14.37;35.16;99192.91;4955829;28;20409;-70
2023/02/03 12:48:11;;;;;;;;;;;;;;;14.25;35.38;99192.16;4939975;29;19918;-71
2023/02/03 12:50:41;;;;;;;;;;;;;;;14.12;35.42;99194.13;4939697;29;20287;-70
2023/02/03 12:53:10;;;;;;;;;;;;;;;14.00;35.59;99196.00;4956802;29;19978;-70
2023/02/03 12:55:46;;;;;;;;;;;;;;;13.91;35.62;99199.38;4923912;29;19918;-72